Urb Rio Grande Est, Puerto Rico
Current Conditions -  °F | °C
As of 3:56 PM on Sunday 23 Nov 2014 (Local Time) from TJSJ Reporting Station
Scattered Clouds Scattered Clouds  
Wind Chill: 85°   Ceiling: Unl
Heat Index: 92°   Visibility: 10mi
Dew Point: 73°   Wind: 15mph
Humidity: 67%   Direction: 70°ENE
Pressure: 29.97"   Gusts: NA
Location:  18.3817°N, 65.8302°W
Report Text: TJSJ 231956Z 07013KT 10SM FEW022 SCT070 29/23 A2997 RMK AO2 SLP146 T02940228 $
Loading
Personal Weather Stations






























Interactive Weather Map New forecast layout! Learn more

10-Day Weather Forecast

Advertisements
Track Severe Weather on mobile